sensor_id;sensor_type;location;lat;lon;timestamp;pressure;altitude;pressure_sealevel;temperature;humidity
62680;BME280;68213;40.528;44.712;2023-10-09T00:00:24;80392.13;;;8.72;50.16
62680;BME280;68213;40.528;44.712;2023-10-09T00:01:40;80463.78;;;9.24;50.23
62680;BME280;68213;40.528;44.712;2023-10-09T00:02:50;80459.47;;;9.29;49.87
62680;BME280;68213;40.528;44.712;2023-10-09T00:03:51;80460.25;;;9.31;49.72
62680;BME280;68213;40.528;44.712;2023-10-09T00:04:53;80457.63;;;9.31;50.07
62680;BME280;68213;40.528;44.712;2023-10-09T00:05:57;80462.78;;;9.29;49.49
62680;BME280;68213;40.528;44.712;2023-10-09T00:06:58;80467.56;;;9.33;49.41
62680;BME280;68213;40.528;44.712;2023-10-09T00:08:00;80455.91;;;9.36;49.15
62680;BME280;68213;40.528;44.712;2023-10-09T00:09:06;80448.16;;;9.38;49.22
62680;BME280;68213;40.528;44.712;2023-10-09T00:10:25;80449.41;;;9.37;49.20
62680;BME280;68213;40.528;44.712;2023-10-09T00:11:35;80440.88;;;9.36;49.16
62680;BME280;68213;40.528;44.712;2023-10-09T00:12:42;80454.56;;;9.35;49.11
62680;BME280;68213;40.528;44.712;2023-10-09T00:13:45;80447.50;;;9.38;48.67
62680;BME280;68213;40.528;44.712;2023-10-09T00:14:54;80460.72;;;9.40;48.67
62680;BME280;68213;40.528;44.712;2023-10-09T00:16:04;80461.41;;;9.40;48.71
62680;BME280;68213;40.528;44.712;2023-10-09T00:17:16;80415.13;;;9.09;48.67
62680;BME280;68213;40.528;44.712;2023-10-09T00:18:20;80458.00;;;9.38;48.68
62680;BME280;68213;40.528;44.712;2023-10-09T00:19:29;80474.41;;;9.38;48.34
62680;BME280;68213;40.528;44.712;2023-10-09T00:20:36;80451.25;;;9.46;48.05
62680;BME280;68213;40.528;44.712;2023-10-09T00:21:44;80446.78;;;9.49;47.86
62680;BME280;68213;40.528;44.712;2023-10-09T00:22:45;80446.56;;;9.45;47.86
62680;BME280;68213;40.528;44.712;2023-10-09T00:23:47;80457.94;;;9.49;47.84
62680;BME280;68213;40.528;44.712;2023-10-09T00:24:57;80430.16;;;9.32;47.96
62680;BME280;68213;40.528;44.712;2023-10-09T00:26:22;80454.00;;;9.48;48.27
62680;BME280;68213;40.528;44.712;2023-10-09T00:27:23;80452.72;;;9.49;47.98
62680;BME280;68213;40.528;44.712;2023-10-09T00:28:24;80452.72;;;9.49;48.11
62680;BME280;68213;40.528;44.712;2023-10-09T00:29:28;80445.28;;;9.46;48.20
62680;BME280;68213;40.528;44.712;2023-10-09T00:30:35;80460.94;;;9.44;48.16
62680;BME280;68213;40.528;44.712;2023-10-09T00:31:42;80453.63;;;9.42;48.44
62680;BME280;68213;40.528;44.712;2023-10-09T00:32:50;80431.66;;;9.24;48.23
62680;BME280;68213;40.528;44.712;2023-10-09T00:34:04;80450.34;;;9.42;48.09
62680;BME280;68213;40.528;44.712;2023-10-09T00:35:05;80459.78;;;9.47;47.97
62680;BME280;68213;40.528;44.712;2023-10-09T00:36:25;80456.38;;;9.44;48.09
62680;BME280;68213;40.528;44.712;2023-10-09T00:37:29;80455.00;;;9.43;48.32
62680;BME280;68213;40.528;44.712;2023-10-09T00:38:34;80456.16;;;9.40;48.19
62680;BME280;68213;40.528;44.712;2023-10-09T00:39:38;80446.91;;;9.39;48.46
62680;BME280;68213;40.528;44.712;2023-10-09T00:40:38;80450.22;;;9.40;48.32
62680;BME280;68213;40.528;44.712;2023-10-09T00:41:45;80451.47;;;9.39;48.41
62680;BME280;68213;40.528;44.712;2023-10-09T00:42:46;80456.72;;;9.39;48.45
62680;BME280;68213;40.528;44.712;2023-10-09T00:43:50;80465.94;;;9.40;48.27
62680;BME280;68213;40.528;44.712;2023-10-09T00:44:52;80452.28;;;9.41;48.29
62680;BME280;68213;40.528;44.712;2023-10-09T00:45:54;80467.31;;;9.41;48.31
62680;BME280;68213;40.528;44.712;2023-10-09T00:46:55;80476.69;;;9.44;48.14
62680;BME280;68213;40.528;44.712;2023-10-09T00:47:59;80431.75;;;9.26;48.41
62680;BME280;68213;40.528;44.712;2023-10-09T00:49:03;80443.38;;;9.46;48.31
62680;BME280;68213;40.528;44.712;2023-10-09T00:50:10;80435.97;;;9.43;48.33
62680;BME280;68213;40.528;44.712;2023-10-09T00:51:22;80446.78;;;9.37;48.13
62680;BME280;68213;40.528;44.712;2023-10-09T00:52:27;80452.28;;;9.41;47.81
62680;BME280;68213;40.528;44.712;2023-10-09T00:53:39;80429.22;;;9.40;47.90
62680;BME280;68213;40.528;44.712;2023-10-09T00:54:40;80432.44;;;9.38;47.87
62680;BME280;68213;40.528;44.712;2023-10-09T00:55:42;80430.94;;;9.35;47.73
62680;BME280;68213;40.528;44.712;2023-10-09T00:56:46;80421.28;;;9.26;47.74
62680;BME280;68213;40.528;44.712;2023-10-09T00:57:58;80436.19;;;9.35;47.41
62680;BME280;68213;40.528;44.712;2023-10-09T00:59:00;80406.34;;;9.16;47.80
62680;BME280;68213;40.528;44.712;2023-10-09T01:00:15;80445.09;;;9.30;47.07
62680;BME280;68213;40.528;44.712;2023-10-09T01:01:36;80439.72;;;9.40;45.35
62680;BME280;68213;40.528;44.712;2023-10-09T01:02:45;80426.25;;;9.45;45.28
62680;BME280;68213;40.528;44.712;2023-10-09T01:03:46;80419.63;;;9.44;45.38
62680;BME280;68213;40.528;44.712;2023-10-09T01:04:51;80411.66;;;9.42;45.52
62680;BME280;68213;40.528;44.712;2023-10-09T01:05:55;80424.44;;;9.48;45.61
62680;BME280;68213;40.528;44.712;2023-10-09T01:06:59;80424.88;;;9.44;45.63
62680;BME280;68213;40.528;44.712;2023-10-09T01:08:11;80418.72;;;9.40;45.62
62680;BME280;68213;40.528;44.712;2023-10-09T01:09:24;80430.13;;;9.44;45.43
62680;BME280;68213;40.528;44.712;2023-10-09T01:10:24;80423.63;;;9.45;45.07
62680;BME280;68213;40.528;44.712;2023-10-09T01:11:33;80429.22;;;9.51;44.64
62680;BME280;68213;40.528;44.712;2023-10-09T01:12:37;80436.53;;;9.53;44.58
62680;BME280;68213;40.528;44.712;2023-10-09T01:13:46;80424.75;;;9.54;44.87
62680;BME280;68213;40.528;44.712;2023-10-09T01:14:53;80421.47;;;9.53;44.85
62680;BME280;68213;40.528;44.712;2023-10-09T01:15:56;80421.34;;;9.51;44.40
62680;BME280;68213;40.528;44.712;2023-10-09T01:16:58;80428.66;;;9.53;44.28
62680;BME280;68213;40.528;44.712;2023-10-09T01:18:02;80402.31;;;9.39;44.28
62680;BME280;68213;40.528;44.712;2023-10-09T01:19:02;80424.66;;;9.52;42.98
62680;BME280;68213;40.528;44.712;2023-10-09T01:20:22;80415.75;;;9.57;43.04
62680;BME280;68213;40.528;44.712;2023-10-09T01:21:28;80433.97;;;9.67;42.79
62680;BME280;68213;40.528;44.712;2023-10-09T01:22:34;80424.16;;;9.67;43.05
62680;BME280;68213;40.528;44.712;2023-10-09T01:23:34;80421.56;;;9.56;42.30
62680;BME280;68213;40.528;44.712;2023-10-09T01:24:43;80430.75;;;9.68;42.66
62680;BME280;68213;40.528;44.712;2023-10-09T01:25:43;80422.34;;;9.70;42.73
62680;BME280;68213;40.528;44.712;2023-10-09T01:26:46;80417.09;;;9.70;42.77
62680;BME280;68213;40.528;44.712;2023-10-09T01:27:47;80416.50;;;9.72;42.54
62680;BME280;68213;40.528;44.712;2023-10-09T01:28:48;80420.97;;;9.69;42.68
62680;BME280;68213;40.528;44.712;2023-10-09T01:29:49;80423.34;;;9.65;42.68
62680;BME280;68213;40.528;44.712;2023-10-09T01:30:52;80422.09;;;9.66;42.62
62680;BME280;68213;40.528;44.712;2023-10-09T01:31:54;80393.41;;;9.44;42.83
62680;BME280;68213;40.528;44.712;2023-10-09T01:32:55;80410.81;;;9.63;42.95
62680;BME280;68213;40.528;44.712;2023-10-09T01:33:58;80416.66;;;9.62;43.26
62680;BME280;68213;40.528;44.712;2023-10-09T01:35:00;80415.94;;;9.61;43.15
62680;BME280;68213;40.528;44.712;2023-10-09T01:36:00;80413.13;;;9.57;43.08
62680;BME280;68213;40.528;44.712;2023-10-09T01:37:02;80418.94;;;9.56;42.92
62680;BME280;68213;40.528;44.712;2023-10-09T01:38:05;80392.50;;;9.40;42.90
62680;BME280;68213;40.528;44.712;2023-10-09T01:39:13;80423.16;;;9.61;43.21
62680;BME280;68213;40.528;44.712;2023-10-09T01:40:34;80413.91;;;9.60;43.30
62680;BME280;68213;40.528;44.712;2023-10-09T01:41:38;80394.44;;;9.39;43.34
62680;BME280;68213;40.528;44.712;2023-10-09T01:42:47;80415.53;;;9.53;43.64
62680;BME280;68213;40.528;44.712;2023-10-09T01:43:47;80417.34;;;9.50;43.56
62680;BME280;68213;40.528;44.712;2023-10-09T01:44:51;80410.72;;;9.49;43.93
62680;BME280;68213;40.528;44.712;2023-10-09T01:45:52;80417.25;;;9.48;43.61
62680;BME280;68213;40.528;44.712;2023-10-09T01:46:53;80415.97;;;9.49;43.77
62680;BME280;68213;40.528;44.712;2023-10-09T01:47:57;80421.22;;;9.49;43.97
62680;BME280;68213;40.528;44.712;2023-10-09T01:48:57;80412.69;;;9.49;44.17
62680;BME280;68213;40.528;44.712;2023-10-09T01:49:59;80406.75;;;9.48;44.47
62680;BME280;68213;40.528;44.712;2023-10-09T01:51:05;80409.03;;;9.42;44.76
62680;BME280;68213;40.528;44.712;2023-10-09T01:52:10;80406.78;;;9.36;44.87
62680;BME280;68213;40.528;44.712;2023-10-09T01:53:17;80408.50;;;9.32;45.04
62680;BME280;68213;40.528;44.712;2023-10-09T01:54:18;80415.66;;;9.31;45.56
62680;BME280;68213;40.528;44.712;2023-10-09T01:55:34;80395.16;;;9.16;45.55
62680;BME280;68213;40.528;44.712;2023-10-09T01:56:35;80412.16;;;9.27;45.86
62680;BME280;68213;40.528;44.712;2023-10-09T01:57:39;80404.16;;;9.25;46.04
62680;BME280;68213;40.528;44.712;2023-10-09T01:58:44;80408.03;;;9.24;46.70
62680;BME280;68213;40.528;44.712;2023-10-09T01:59:47;80397.91;;;9.18;46.82
62680;BME280;68213;40.528;44.712;2023-10-09T02:00:50;80402.34;;;9.15;46.71
62680;BME280;68213;40.528;44.712;2023-10-09T02:01:57;80410.34;;;9.17;47.17
62680;BME280;68213;40.528;44.712;2023-10-09T02:03:01;80407.72;;;9.17;47.24
62680;BME280;68213;40.528;44.712;2023-10-09T02:04:05;80420.72;;;9.15;47.43
62680;BME280;68213;40.528;44.712;2023-10-09T02:05:14;80403.84;;;9.18;47.32
62680;BME280;68213;40.528;44.712;2023-10-09T02:06:14;80410.53;;;9.21;47.25
62680;BME280;68213;40.528;44.712;2023-10-09T02:07:32;80402.59;;;9.19;47.39
62680;BME280;68213;40.528;44.712;2023-10-09T02:08:41;80407.00;;;9.17;47.48
62680;BME280;68213;40.528;44.712;2023-10-09T02:09:49;80406.91;;;9.15;47.57
62680;BME280;68213;40.528;44.712;2023-10-09T02:10:50;80395.84;;;9.16;47.18
62680;BME280;68213;40.528;44.712;2023-10-09T02:11:55;80398.22;;;9.12;47.57
62680;BME280;68213;40.528;44.712;2023-10-09T02:12:57;80401.44;;;9.11;47.51
62680;BME280;68213;40.528;44.712;2023-10-09T02:14:02;80385.25;;;8.91;47.75
62680;BME280;68213;40.528;44.712;2023-10-09T02:15:06;80393.91;;;9.05;47.67
62680;BME280;68213;40.528;44.712;2023-10-09T02:16:15;80404.19;;;9.01;47.64
62680;BME280;68213;40.528;44.712;2023-10-09T02:17:28;80332.88;;;8.55;47.15
62680;BME280;68213;40.528;44.712;2023-10-09T02:18:29;80407.13;;;9.07;47.35
62680;BME280;68213;40.528;44.712;2023-10-09T02:19:33;80391.19;;;9.03;47.50
62680;BME280;68213;40.528;44.712;2023-10-09T02:20:40;80399.41;;;9.09;47.39
62680;BME280;68213;40.528;44.712;2023-10-09T02:22:02;80391.41;;;8.95;47.07
62680;BME280;68213;40.528;44.712;2023-10-09T02:23:12;80400.53;;;9.06;46.92
62680;BME280;68213;40.528;44.712;2023-10-09T02:24:13;80408.50;;;9.20;46.54
62680;BME280;68213;40.528;44.712;2023-10-09T02:25:29;80401.31;;;9.20;46.70
62680;BME280;68213;40.528;44.712;2023-10-09T02:26:34;80397.56;;;9.24;46.68
62680;BME280;68213;40.528;44.712;2023-10-09T02:27:38;80401.22;;;9.18;46.75
62680;BME280;68213;40.528;44.712;2023-10-09T02:29:00;80401.22;;;9.18;47.02
62680;BME280;68213;40.528;44.712;2023-10-09T02:30:06;80406.22;;;9.14;46.21
62680;BME280;68213;40.528;44.712;2023-10-09T02:31:16;80394.94;;;9.12;46.75
62680;BME280;68213;40.528;44.712;2023-10-09T02:32:22;80393.44;;;9.09;46.65
62680;BME280;68213;40.528;44.712;2023-10-09T02:33:27;80400.75;;;9.10;46.25
62680;BME280;68213;40.528;44.712;2023-10-09T02:34:33;80392.78;;;9.08;46.60
62680;BME280;68213;40.528;44.712;2023-10-09T02:35:38;80389.38;;;9.05;46.51
62680;BME280;68213;40.528;44.712;2023-10-09T02:36:39;80394.59;;;9.05;46.89
62680;BME280;68213;40.528;44.712;2023-10-09T02:37:43;80390.03;;;9.06;46.73
62680;BME280;68213;40.528;44.712;2023-10-09T02:38:46;80390.50;;;9.02;47.11
62680;BME280;68213;40.528;44.712;2023-10-09T02:39:50;80390.97;;;8.99;47.20
62680;BME280;68213;40.528;44.712;2023-10-09T02:40:52;80396.91;;;8.99;47.32
62680;BME280;68213;40.528;44.712;2023-10-09T02:42:04;80396.09;;;8.97;47.44
62680;BME280;68213;40.528;44.712;2023-10-09T02:43:19;80399.41;;;8.97;47.07
62680;BME280;68213;40.528;44.712;2023-10-09T02:44:22;80391.41;;;8.95;47.37
62680;BME280;68213;40.528;44.712;2023-10-09T02:45:26;80401.09;;;8.93;47.18
62680;BME280;68213;40.528;44.712;2023-10-09T02:46:35;80393.47;;;8.97;46.80
62680;BME280;68213;40.528;44.712;2023-10-09T02:47:35;80397.22;;;8.94;47.33
62680;BME280;68213;40.528;44.712;2023-10-09T02:48:40;80385.38;;;8.81;47.32
62680;BME280;68213;40.528;44.712;2023-10-09T02:49:48;80390.28;;;8.86;47.29
62680;BME280;68213;40.528;44.712;2023-10-09T02:50:49;80406.69;;;8.87;46.89
62680;BME280;68213;40.528;44.712;2023-10-09T02:51:51;80399.53;;;8.87;46.65
62680;BME280;68213;40.528;44.712;2023-10-09T02:52:54;80390.88;;;8.85;46.43
62680;BME280;68213;40.528;44.712;2023-10-09T02:54:02;80363.63;;;8.66;46.92
62680;BME280;68213;40.528;44.712;2023-10-09T02:55:19;80391.66;;;8.76;47.02
62680;BME280;68213;40.528;44.712;2023-10-09T02:56:28;80390.88;;;8.73;47.01
62680;BME280;68213;40.528;44.712;2023-10-09T02:57:43;80396.19;;;8.75;46.64
62680;BME280;68213;40.528;44.712;2023-10-09T02:58:45;80401.44;;;8.75;46.97
62680;BME280;68213;40.528;44.712;2023-10-09T02:59:49;80387.31;;;8.68;46.46
62680;BME280;68213;40.528;44.712;2023-10-09T03:00:51;80403.84;;;8.83;46.73
62680;BME280;68213;40.528;44.712;2023-10-09T03:01:52;80392.69;;;8.82;46.45
62680;BME280;68213;40.528;44.712;2023-10-09T03:02:53;80392.56;;;8.80;46.67
62680;BME280;68213;40.528;44.712;2023-10-09T03:03:54;80366.34;;;8.56;46.57
62680;BME280;68213;40.528;44.712;2023-10-09T03:04:59;80408.06;;;8.76;46.70
62680;BME280;68213;40.528;44.712;2023-10-09T03:06:00;80392.44;;;8.78;46.63
62680;BME280;68213;40.528;44.712;2023-10-09T03:07:02;80405.44;;;8.76;46.67
62680;BME280;68213;40.528;44.712;2023-10-09T03:08:04;80402.03;;;8.73;46.75
62680;BME280;68213;40.528;44.712;2023-10-09T03:09:05;80394.72;;;8.72;46.82
62680;BME280;68213;40.528;44.712;2023-10-09T03:10:19;80405.09;;;8.70;46.86
62680;BME280;68213;40.528;44.712;2023-10-09T03:11:21;80405.78;;;8.59;46.78
62680;BME280;68213;40.528;44.712;2023-10-09T03:12:21;80391.19;;;8.67;46.80
62680;BME280;68213;40.528;44.712;2023-10-09T03:13:26;80401.22;;;8.71;46.62
62680;BME280;68213;40.528;44.712;2023-10-09T03:14:30;80401.22;;;8.71;46.76
62680;BME280;68213;40.528;44.712;2023-10-09T03:15:31;80399.19;;;8.69;47.06
62680;BME280;68213;40.528;44.712;2023-10-09T03:16:36;80403.03;;;8.68;47.07
62680;BME280;68213;40.528;44.712;2023-10-09T03:17:37;80402.94;;;8.66;47.01
62680;BME280;68213;40.528;44.712;2023-10-09T03:18:39;80399.63;;;8.66;46.99
62680;BME280;68213;40.528;44.712;2023-10-09T03:19:40;80394.41;;;8.66;47.08
62680;BME280;68213;40.528;44.712;2023-10-09T03:20:40;80399.63;;;8.66;47.33
62680;BME280;68213;40.528;44.712;2023-10-09T03:21:44;80400.88;;;8.65;47.05
62680;BME280;68213;40.528;44.712;2023-10-09T03:22:47;80406.25;;;8.67;47.17
62680;BME280;68213;40.528;44.712;2023-10-09T03:23:49;80397.81;;;8.68;47.15
62680;BME280;68213;40.528;44.712;2023-10-09T03:24:49;80403.38;;;8.63;47.44
62680;BME280;68213;40.528;44.712;2023-10-09T03:25:53;80404.28;;;8.67;47.49
62680;BME280;68213;40.528;44.712;2023-10-09T03:26:53;80411.81;;;8.61;47.38
62680;BME280;68213;40.528;44.712;2023-10-09T03:27:56;80395.06;;;8.54;47.93
62680;BME280;68213;40.528;44.712;2023-10-09T03:28:57;80389.59;;;8.50;47.87
62680;BME280;68213;40.528;44.712;2023-10-09T03:30:01;80403.03;;;8.56;48.03
62680;BME280;68213;40.528;44.712;2023-10-09T03:31:05;80420.00;;;8.55;47.87
62680;BME280;68213;40.528;44.712;2023-10-09T03:32:07;80417.19;;;8.63;47.45
62680;BME280;68213;40.528;44.712;2023-10-09T03:33:09;80416.03;;;8.66;47.66
62680;BME280;68213;40.528;44.712;2023-10-09T03:34:10;80411.38;;;8.65;47.71
62680;BME280;68213;40.528;44.712;2023-10-09T03:35:11;80416.47;;;8.63;47.70
62680;BME280;68213;40.528;44.712;2023-10-09T03:36:17;80423.09;;;8.64;47.39
62680;BME280;68213;40.528;44.712;2023-10-09T03:37:18;80425.72;;;8.64;47.60
62680;BME280;68213;40.528;44.712;2023-10-09T03:38:22;80415.22;;;8.64;47.88
62680;BME280;68213;40.528;44.712;2023-10-09T03:39:23;80419.22;;;8.65;47.59
62680;BME280;68213;40.528;44.712;2023-10-09T03:40:42;80420.03;;;8.67;47.53
62680;BME280;68213;40.528;44.712;2023-10-09T03:41:44;80416.72;;;8.67;47.72
62680;BME280;68213;40.528;44.712;2023-10-09T03:42:47;80414.91;;;8.69;47.54
62680;BME280;68213;40.528;44.712;2023-10-09T03:43:48;80415.56;;;8.70;47.81
62680;BME280;68213;40.528;44.712;2023-10-09T03:44:51;80426.19;;;8.72;47.89
62680;BME280;68213;40.528;44.712;2023-10-09T03:45:57;80408.50;;;8.61;47.91
62680;BME280;68213;40.528;44.712;2023-10-09T03:46:59;80417.63;;;8.71;47.90
62680;BME280;68213;40.528;44.712;2023-10-09T03:48:01;80412.38;;;8.71;47.92
62680;BME280;68213;40.528;44.712;2023-10-09T03:49:11;80412.28;;;8.69;48.18
62680;BME280;68213;40.528;44.712;2023-10-09T03:50:16;80434.72;;;8.72;47.98
62680;BME280;68213;40.528;44.712;2023-10-09T03:51:50;80377.25;;;8.41;47.63
62680;BME280;68213;40.528;44.712;2023-10-09T03:52:51;80410.47;;;8.72;47.80
62680;BME280;68213;40.528;44.712;2023-10-09T03:53:54;80441.91;;;8.84;47.23
62680;BME280;68213;40.528;44.712;2023-10-09T03:54:55;80428.34;;;8.87;47.15
62680;BME280;68213;40.528;44.712;2023-10-09T03:55:55;80429.81;;;8.91;47.35
62680;BME280;68213;40.528;44.712;2023-10-09T03:56:56;80424.94;;;8.97;47.36
62680;BME280;68213;40.528;44.712;2023-10-09T03:57:59;80438.16;;;8.99;47.34
62680;BME280;68213;40.528;44.712;2023-10-09T03:59:01;80422.66;;;9.03;47.44
62680;BME280;68213;40.528;44.712;2023-10-09T04:00:05;80417.97;;;9.01;47.44
62680;BME280;68213;40.528;44.712;2023-10-09T04:01:15;80411.47;;;9.02;47.36
62680;BME280;68213;40.528;44.712;2023-10-09T04:02:28;80396.19;;;8.87;47.49
62680;BME280;68213;40.528;44.712;2023-10-09T04:03:33;80408.38;;;9.06;47.28
62680;BME280;68213;40.528;44.712;2023-10-09T04:04:37;80432.22;;;9.10;46.55
62680;BME280;68213;40.528;44.712;2023-10-09T04:05:37;80421.84;;;9.12;47.28
62680;BME280;68213;40.528;44.712;2023-10-09T04:06:42;80427.19;;;9.14;47.28
62680;BME280;68213;40.528;44.712;2023-10-09T04:07:43;80443.06;;;9.16;46.97
62680;BME280;68213;40.528;44.712;2023-10-09T04:08:44;80417.50;;;9.05;46.47
62680;BME280;68213;40.528;44.712;2023-10-09T04:09:47;80426.53;;;9.26;46.39
62680;BME280;68213;40.528;44.712;2023-10-09T04:10:55;80418.88;;;9.30;46.11
62680;BME280;68213;40.528;44.712;2023-10-09T04:12:01;80417.72;;;9.33;46.60
62680;BME280;68213;40.528;44.712;2023-10-09T04:13:13;80429.69;;;9.36;46.23
62680;BME280;68213;40.528;44.712;2023-10-09T04:14:18;80436.31;;;9.37;46.23
62680;BME280;68213;40.528;44.712;2023-10-09T04:15:26;80421.47;;;9.42;46.03
62680;BME280;68213;40.528;44.712;2023-10-09T04:16:30;80415.75;;;9.45;45.80
62680;BME280;68213;40.528;44.712;2023-10-09T04:17:31;80412.56;;;9.47;45.97
62680;BME280;68213;40.528;44.712;2023-10-09T04:18:35;80419.88;;;9.48;45.68
62680;BME280;68213;40.528;44.712;2023-10-09T04:19:38;80429.91;;;9.52;45.67
62680;BME280;68213;40.528;44.712;2023-10-09T04:20:48;80435.25;;;9.54;45.43
62680;BME280;68213;40.528;44.712;2023-10-09T04:22:12;80443.94;;;9.57;45.74
62680;BME280;68213;40.528;44.712;2023-10-09T04:23:28;80422.94;;;9.57;45.25
62680;BME280;68213;40.528;44.712;2023-10-09T04:24:37;80431.03;;;9.61;45.20
62680;BME280;68213;40.528;44.712;2023-10-09T04:25:44;80419.94;;;9.62;45.53
62680;BME280;68213;40.528;44.712;2023-10-09T04:26:50;80423.25;;;9.63;45.57
62680;BME280;68213;40.528;44.712;2023-10-09T04:27:58;80422.69;;;9.64;45.61
62680;BME280;68213;40.528;44.712;2023-10-09T04:29:17;80424.84;;;9.68;45.51
62680;BME280;68213;40.528;44.712;2023-10-09T04:30:27;80430.22;;;9.70;45.47
62680;BME280;68213;40.528;44.712;2023-10-09T04:31:29;80427.00;;;9.72;45.44
62680;BME280;68213;40.528;44.712;2023-10-09T04:32:35;80427.00;;;9.72;45.30
62680;BME280;68213;40.528;44.712;2023-10-09T04:33:35;80429.31;;;9.65;45.61
62680;BME280;68213;40.528;44.712;2023-10-09T04:34:42;80422.78;;;9.78;45.25
62680;BME280;68213;40.528;44.712;2023-10-09T04:35:49;80446.28;;;9.76;45.54
62680;BME280;68213;40.528;44.712;2023-10-09T04:37:10;80441.25;;;9.80;44.55
62680;BME280;68213;40.528;44.712;2023-10-09T04:38:39;80419.09;;;9.83;44.98
62680;BME280;68213;40.528;44.712;2023-10-09T04:39:53;80419.31;;;9.88;44.47
62680;BME280;68213;40.528;44.712;2023-10-09T04:41:11;80422.75;;;9.90;44.52
62680;BME280;68213;40.528;44.712;2023-10-09T04:42:27;80427.41;;;9.92;44.63
62680;BME280;68213;40.528;44.712;2023-10-09T04:43:37;80424.09;;;9.91;44.64
62680;BME280;68213;40.528;44.712;2023-10-09T04:44:45;80429.34;;;9.91;44.89
62680;BME280;68213;40.528;44.712;2023-10-09T04:46:05;80423.28;;;9.89;45.24
62680;BME280;68213;40.528;44.712;2023-10-09T04:47:12;80423.09;;;9.84;45.07
62680;BME280;68213;40.528;44.712;2023-10-09T04:48:18;80432.53;;;9.90;44.99
62680;BME280;68213;40.528;44.712;2023-10-09T04:49:34;80409.81;;;9.94;45.30
62680;BME280;68213;40.528;44.712;2023-10-09T04:50:50;80402.38;;;10.03;45.02
62680;BME280;68213;40.528;44.712;2023-10-09T04:52:09;80421.66;;;10.07;44.93
62680;BME280;68213;40.528;44.712;2023-10-09T04:53:20;80421.19;;;10.11;44.48
62680;BME280;68213;40.528;44.712;2023-10-09T04:54:23;80416.72;;;10.13;44.60
62680;BME280;68213;40.528;44.712;2023-10-09T04:55:40;80406.41;;;10.18;44.24
62680;BME280;68213;40.528;44.712;2023-10-09T04:56:54;80430.63;;;10.16;44.03
62680;BME280;68213;40.528;44.712;2023-10-09T04:57:55;80422.16;;;10.18;44.38
62680;BME280;68213;40.528;44.712;2023-10-09T04:59:01;80429.38;;;10.17;44.26
62680;BME280;68213;40.528;44.712;2023-10-09T05:01:23;80414.28;;;10.18;44.35
62680;BME280;68213;40.528;44.712;2023-10-09T05:02:36;80410.28;;;10.16;44.08
62680;BME280;68213;40.528;44.712;2023-10-09T05:03:40;80419.53;;;10.18;44.52
62680;BME280;68213;40.528;44.712;2023-10-09T05:04:40;80419.88;;;10.24;43.51
62680;BME280;68213;40.528;44.712;2023-10-09T05:05:42;80422.59;;;10.26;44.03
62680;BME280;68213;40.528;44.712;2023-10-09T05:06:42;80418.72;;;10.27;43.95
62680;BME280;68213;40.528;44.712;2023-10-09T05:07:50;80426.69;;;10.29;43.16
62680;BME280;68213;40.528;44.712;2023-10-09T05:08:57;80399.25;;;10.32;43.63
62680;BME280;68213;40.528;44.712;2023-10-09T05:10:09;80411.84;;;10.34;43.52
62680;BME280;68213;40.528;44.712;2023-10-09T05:11:16;80428.53;;;10.38;43.62
62680;BME280;68213;40.528;44.712;2023-10-09T05:12:53;80421.91;;;10.37;43.52
62680;BME280;68213;40.528;44.712;2023-10-09T05:14:01;80398.47;;;10.29;43.48
62680;BME280;68213;40.528;44.712;2023-10-09T05:15:14;80413.88;;;10.35;43.17
62680;BME280;68213;40.528;44.712;2023-10-09T05:16:16;80444.97;;;10.39;43.97
62680;BME280;68213;40.528;44.712;2023-10-09T05:17:25;80416.63;;;10.37;43.34
62680;BME280;68213;40.528;44.712;2023-10-09T05:18:26;80430.56;;;10.40;43.01
62680;BME280;68213;40.528;44.712;2023-10-09T05:19:27;80405.31;;;10.35;43.20
62680;BME280;68213;40.528;44.712;2023-10-09T05:20:42;80419.78;;;10.47;43.24
62680;BME280;68213;40.528;44.712;2023-10-09T05:22:17;80383.81;;;10.12;42.85
62680;BME280;68213;40.528;44.712;2023-10-09T05:23:30;80421.63;;;10.45;43.27
62680;BME280;68213;40.528;44.712;2023-10-09T05:24:44;80416.19;;;10.55;43.23
62680;BME280;68213;40.528;44.712;2023-10-09T05:25:48;80420.66;;;10.52;42.50
62680;BME280;68213;40.528;44.712;2023-10-09T05:26:55;80388.75;;;10.58;42.70
62680;BME280;68213;40.528;44.712;2023-10-09T05:28:18;80420.50;;;10.62;42.20
62680;BME280;68213;40.528;44.712;2023-10-09T05:29:37;80383.53;;;10.72;42.54
62680;BME280;68213;40.528;44.712;2023-10-09T05:30:49;80404.88;;;10.78;42.47
62680;BME280;68213;40.528;44.712;2023-10-09T05:32:04;80385.28;;;10.81;42.31
62680;BME280;68213;40.528;44.712;2023-10-09T05:33:14;80403.91;;;10.85;42.42
62680;BME280;68213;40.528;44.712;2023-10-09T05:34:33;80402.84;;;10.90;42.17
62680;BME280;68213;40.528;44.712;2023-10-09T05:35:34;80395.72;;;10.93;42.25
62680;BME280;68213;40.528;44.712;2023-10-09T05:36:41;80390.47;;;10.93;41.43
62680;BME280;68213;40.528;44.712;2023-10-09T05:37:48;80397.31;;;10.98;41.86
62680;BME280;68213;40.528;44.712;2023-10-09T05:38:59;80389.25;;;11.08;42.38
62680;BME280;68213;40.528;44.712;2023-10-09T05:40:17;80418.56;;;11.16;41.35
62680;BME280;68213;40.528;44.712;2023-10-09T05:41:21;80391.56;;;11.16;41.29
62680;BME280;68213;40.528;44.712;2023-10-09T05:42:40;80391.56;;;11.16;41.22
62680;BME280;68213;40.528;44.712;2023-10-09T05:43:44;80400.34;;;11.20;40.80
62680;BME280;68213;40.528;44.712;2023-10-09T05:45:07;80409.31;;;11.15;40.64
62680;BME280;68213;40.528;44.712;2023-10-09T05:46:18;80402.56;;;11.12;40.67
62680;BME280;68213;40.528;44.712;2023-10-09T05:47:18;80398.69;;;11.13;39.93
62680;BME280;68213;40.528;44.712;2023-10-09T05:48:34;80406.19;;;11.19;40.86
62680;BME280;68213;40.528;44.712;2023-10-09T05:49:37;80404.25;;;11.19;41.29
62680;BME280;68213;40.528;44.712;2023-10-09T05:50:54;80395.56;;;11.17;40.13
62680;BME280;68213;40.528;44.712;2023-10-09T05:51:55;80419.34;;;11.19;40.31
62680;BME280;68213;40.528;44.712;2023-10-09T05:53:16;80384.75;;;11.10;40.44